createdAt,value
2022-08-10T00:00:51.594Z,99.90
2022-08-10T00:05:54.937Z,99.90
2022-08-10T00:10:58.084Z,99.90
2022-08-10T00:16:00.260Z,99.90
2022-08-10T00:21:02.417Z,99.90
2022-08-10T00:26:05.752Z,99.90
2022-08-10T00:31:07.564Z,99.90
2022-08-10T00:36:09.538Z,99.90
2022-08-10T00:41:11.336Z,99.90
2022-08-10T00:46:13.117Z,99.90
2022-08-10T00:51:15.081Z,99.90
2022-08-10T00:56:35.088Z,99.90
2022-08-10T01:02:08.652Z,99.90
2022-08-10T01:07:19.873Z,99.90
2022-08-10T01:12:46.676Z,99.90
2022-08-10T01:17:54.206Z,99.90
2022-08-10T01:23:20.827Z,99.90
2022-08-10T01:28:34.386Z,99.90
2022-08-10T01:33:58.464Z,99.90
2022-08-10T01:39:03.900Z,99.90
2022-08-10T01:44:29.238Z,99.90
2022-08-10T01:49:32.168Z,99.90
2022-08-10T01:54:34.596Z,99.90
2022-08-10T01:59:39.898Z,99.90
2022-08-10T02:04:46.072Z,99.90
2022-08-10T02:09:52.902Z,99.90
2022-08-10T02:14:58.733Z,99.90
2022-08-10T02:20:05.410Z,99.90
2022-08-10T02:25:08.961Z,99.90
2022-08-10T02:30:12.219Z,99.90
2022-08-10T02:35:22.510Z,99.90
2022-08-10T02:45:01.646Z,99.90
2022-08-10T02:45:53.241Z,99.90
2022-08-10T02:50:58.695Z,99.90
2022-08-10T02:56:10.728Z,99.90
2022-08-10T03:01:17.632Z,99.90
2022-08-10T03:06:25.260Z,99.90
2022-08-10T03:12:35.281Z,99.90
2022-08-10T03:16:55.463Z,99.90
2022-08-10T03:21:58.639Z,99.90
2022-08-10T03:27:01.398Z,99.90
2022-08-10T03:32:05.637Z,99.90
2022-08-10T03:37:07.642Z,99.90
2022-08-10T03:42:12.883Z,99.90
2022-08-10T03:47:19.984Z,99.90
2022-08-10T03:52:21.917Z,99.90
2022-08-10T03:57:24.543Z,99.90
2022-08-10T04:02:47.140Z,99.90
2022-08-10T04:07:49.038Z,99.90
2022-08-10T04:12:50.898Z,99.90
2022-08-10T04:17:57.031Z,99.90
2022-08-10T04:23:21.993Z,99.90
2022-08-10T04:28:24.054Z,99.90
2022-08-10T04:33:28.991Z,99.90
2022-08-10T04:38:33.697Z,99.90
2022-08-10T04:43:36.467Z,99.90
2022-08-10T04:48:42.056Z,99.90
2022-08-10T04:54:03.889Z,99.90
2022-08-10T04:59:10.641Z,99.90
2022-08-10T05:04:36.542Z,99.90
2022-08-10T05:09:34.143Z,99.90
2022-08-10T05:14:56.181Z,99.90
2022-08-10T05:20:03.305Z,99.90
2022-08-10T05:25:13.815Z,99.90
2022-08-10T05:30:21.943Z,99.90
2022-08-10T05:35:24.053Z,99.90
2022-08-10T05:40:27.555Z,99.90
2022-08-10T05:45:29.430Z,99.90
2022-08-10T05:50:31.527Z,99.90
2022-08-10T05:55:33.580Z,99.90
2022-08-10T06:00:41.898Z,99.90
2022-08-10T06:05:48.169Z,99.90
2022-08-10T06:12:27.686Z,99.90
2022-08-10T06:16:17.025Z,99.90
2022-08-10T06:21:20.053Z,99.90
2022-08-10T06:26:21.954Z,99.90
2022-08-10T06:31:26.111Z,99.90
2022-08-10T06:36:34.085Z,99.90
2022-08-10T06:41:57.870Z,99.90
2022-08-10T06:47:07.627Z,99.90
2022-08-10T06:52:18.236Z,99.90
2022-08-10T06:57:24.746Z,99.90
2022-08-10T07:02:34.238Z,99.90
2022-08-10T07:07:39.149Z,99.90
2022-08-10T07:12:41.152Z,99.90
2022-08-10T07:17:45.888Z,99.90
2022-08-10T07:23:26.961Z,99.90
2022-08-10T07:28:13.477Z,99.90
2022-08-10T07:33:18.242Z,99.90
2022-08-10T07:38:25.377Z,99.90
2022-08-10T07:43:32.037Z,99.90
2022-08-10T07:48:40.646Z,99.90
2022-08-10T07:53:47.703Z,99.90
2022-08-10T07:58:53.017Z,99.90
2022-08-10T08:04:05.930Z,99.90
2022-08-10T08:09:12.854Z,99.90
2022-08-10T08:14:15.885Z,99.90
2022-08-10T08:19:28.540Z,99.90
2022-08-10T08:24:42.363Z,99.90
2022-08-10T08:29:47.021Z,99.90
2022-08-10T08:34:54.413Z,99.90
2022-08-10T08:39:56.775Z,99.90
2022-08-10T08:45:20.218Z,99.90
2022-08-10T08:51:13.134Z,99.90
2022-08-10T08:56:49.562Z,99.90
2022-08-10T09:02:18.099Z,99.90
2022-08-10T09:08:00.040Z,99.90
2022-08-10T09:13:05.262Z,99.90
2022-08-10T09:18:23.938Z,99.90
2022-08-10T09:24:01.902Z,99.90
2022-08-10T09:29:13.476Z,99.90
2022-08-10T09:36:26.997Z,96.90
2022-08-10T09:40:12.267Z,94.60
2022-08-10T09:45:38.890Z,97.50
2022-08-10T09:51:42.137Z,97.70
2022-08-10T09:56:49.405Z,95.20
2022-08-10T10:02:03.625Z,93.90
2022-08-10T10:07:08.662Z,92.60
2022-08-10T10:12:26.885Z,89.20
2022-08-10T10:17:49.829Z,89.90
2022-08-10T10:23:35.098Z,89.20
2022-08-10T10:29:25.164Z,88.90
2022-08-10T10:34:38.091Z,87.80
2022-08-10T10:39:43.982Z,85.80
2022-08-10T10:45:18.166Z,82.80
2022-08-10T10:50:27.673Z,81.90
2022-08-10T10:56:13.268Z,79.30
2022-08-10T11:01:23.032Z,80.80
2022-08-10T11:07:01.082Z,79.10
2022-08-10T11:12:26.180Z,77.20
2022-08-10T11:17:54.978Z,75.40
2022-08-10T11:23:34.421Z,77.30
2022-08-10T11:28:43.272Z,72.90
2022-08-10T11:34:46.607Z,73.80
2022-08-10T11:39:48.576Z,72.80
2022-08-10T11:45:00.223Z,70.00
2022-08-10T11:50:42.535Z,66.50
2022-08-10T11:55:53.243Z,66.90
2022-08-10T12:00:57.246Z,71.00
2022-08-10T12:06:00.867Z,69.60
2022-08-10T12:11:03.027Z,68.70
2022-08-10T12:16:11.902Z,68.30
2022-08-10T12:21:40.725Z,68.20
2022-08-10T12:26:57.157Z,64.80
2022-08-10T12:32:24.870Z,65.80
2022-08-10T12:38:00.054Z,64.00
2022-08-10T12:44:07.129Z,63.90
2022-08-10T12:49:02.671Z,60.70
2022-08-10T12:54:31.811Z,59.70
2022-08-10T12:59:43.368Z,59.00
2022-08-10T13:04:49.160Z,57.60
2022-08-10T13:09:55.691Z,56.20
2022-08-10T13:15:45.962Z,55.50
2022-08-10T13:20:35.336Z,54.70
2022-08-10T13:25:40.490Z,53.80
2022-08-10T13:30:45.539Z,53.30
2022-08-10T13:35:58.078Z,51.60
2022-08-10T13:41:04.086Z,51.00
2022-08-10T13:46:07.286Z,49.60
2022-08-10T13:51:56.933Z,49.30
2022-08-10T13:56:52.078Z,46.90
2022-08-10T14:01:54.413Z,44.30
2022-08-10T14:07:00.240Z,44.50
2022-08-10T14:12:02.316Z,43.10
2022-08-10T14:17:06.952Z,43.00
2022-08-10T14:22:08.855Z,42.50
2022-08-10T14:27:16.365Z,40.60
2022-08-10T14:32:23.469Z,39.00
2022-08-10T14:37:37.780Z,40.10
2022-08-10T14:42:48.928Z,39.70
2022-08-10T14:47:59.376Z,37.80
2022-08-10T14:53:10.197Z,36.90
2022-08-10T14:58:20.552Z,36.90
2022-08-10T15:04:02.251Z,35.70
2022-08-10T15:08:49.967Z,34.40
2022-08-10T15:14:14.917Z,36.90
2022-08-10T15:20:00.941Z,36.80
2022-08-10T15:25:00.287Z,36.40
2022-08-10T15:30:03.803Z,38.00
2022-08-10T15:35:26.113Z,38.00
2022-08-10T15:40:35.965Z,39.60
2022-08-10T15:45:56.587Z,38.10
2022-08-10T15:51:05.748Z,38.30
2022-08-10T15:56:17.496Z,37.50
2022-08-10T16:02:13.726Z,38.80
2022-08-10T16:07:15.431Z,39.40
2022-08-10T16:12:34.961Z,39.50
2022-08-10T16:17:54.312Z,40.30
2022-08-10T16:23:02.119Z,41.10
2022-08-10T16:28:07.388Z,40.70
2022-08-10T16:33:11.882Z,41.50
2022-08-10T16:38:17.070Z,41.50
2022-08-10T16:43:23.548Z,41.40
2022-08-10T16:48:49.475Z,42.50
2022-08-10T16:53:53.729Z,43.00
2022-08-10T16:58:57.419Z,43.90
2022-08-10T17:04:09.910Z,43.20
2022-08-10T17:09:20.573Z,43.70
2022-08-10T17:14:25.058Z,43.20
2022-08-10T17:19:30.131Z,43.40
2022-08-10T17:24:37.381Z,44.80
2022-08-10T17:29:57.140Z,43.90
2022-08-10T17:35:09.139Z,44.90
2022-08-10T17:40:15.520Z,44.90
2022-08-10T17:45:48.719Z,47.20
2022-08-10T17:50:49.760Z,47.60
2022-08-10T17:55:57.695Z,48.50
2022-08-10T18:01:41.569Z,48.60
2022-08-10T18:06:25.068Z,48.90
2022-08-10T18:11:32.143Z,49.40
2022-08-10T18:16:35.418Z,50.10
2022-08-10T18:21:47.104Z,51.10
2022-08-10T18:26:52.373Z,51.20
2022-08-10T18:31:58.987Z,51.80
2022-08-10T18:37:04.410Z,53.00
2022-08-10T18:42:21.326Z,53.20
2022-08-10T18:47:40.979Z,54.30
2022-08-10T18:53:04.632Z,56.40
2022-08-10T18:58:18.200Z,55.90
2022-08-10T19:03:56.547Z,56.90
2022-08-10T19:09:08.629Z,57.30
2022-08-10T19:14:37.442Z,57.30
2022-08-10T19:20:08.670Z,58.10
2022-08-10T19:26:17.106Z,59.00
2022-08-10T19:30:54.355Z,60.60
2022-08-10T19:36:06.214Z,62.40
2022-08-10T19:41:15.007Z,64.80
2022-08-10T19:46:43.677Z,66.40
2022-08-10T19:52:10.921Z,67.80
2022-08-10T19:57:28.973Z,68.80
2022-08-10T20:02:41.961Z,69.90
2022-08-10T20:07:53.932Z,70.80
2022-08-10T20:13:20.573Z,72.40
2022-08-10T20:18:26.737Z,75.20
2022-08-10T20:23:36.686Z,77.90
2022-08-10T20:28:42.948Z,80.40
2022-08-10T20:34:07.087Z,82.10
2022-08-10T20:39:33.732Z,85.00
2022-08-10T20:45:08.458Z,86.10
2022-08-10T20:50:34.781Z,88.10
2022-08-10T20:55:51.951Z,89.00
2022-08-10T21:01:25.640Z,90.20
2022-08-10T21:07:06.027Z,90.80
2022-08-10T21:12:30.414Z,91.20
2022-08-10T21:18:13.174Z,91.70
2022-08-10T21:23:16.790Z,92.00
2022-08-10T21:28:55.463Z,92.40
2022-08-10T21:34:05.878Z,92.40
2022-08-10T21:39:42.572Z,92.70
2022-08-10T21:45:58.350Z,92.70
2022-08-10T21:51:24.375Z,92.90
2022-08-10T21:57:02.828Z,93.00
2022-08-10T22:02:28.052Z,93.10
2022-08-10T22:07:55.037Z,93.40
2022-08-10T22:13:24.010Z,93.50
2022-08-10T22:19:01.899Z,93.70
2022-08-10T22:24:42.573Z,93.80
2022-08-10T22:30:12.049Z,93.90
2022-08-10T22:35:51.307Z,94.00
2022-08-10T22:41:19.155Z,94.20
2022-08-10T22:46:46.215Z,94.50
2022-08-10T22:52:08.188Z,94.00
2022-08-10T22:57:34.416Z,94.30
2022-08-10T23:02:38.660Z,94.20
2022-08-10T23:07:51.365Z,94.30
2022-08-10T23:13:14.389Z,94.40
2022-08-10T23:18:57.729Z,94.40
2022-08-10T23:24:00.157Z,94.40
2022-08-10T23:29:12.157Z,94.60
2022-08-10T23:34:19.569Z,94.80
2022-08-10T23:39:29.873Z,95.10
2022-08-10T23:44:40.795Z,95.10
2022-08-10T23:49:44.273Z,95.10
2022-08-10T23:54:49.852Z,95.40
2022-08-10T23:59:57.985Z,95.50
